createdAt,value
2024-02-24T00:00:50.271Z,986.10
2024-02-24T00:01:50.210Z,986.16
2024-02-24T00:02:50.244Z,986.20
2024-02-24T00:03:50.417Z,986.21
2024-02-24T00:04:50.393Z,986.17
2024-02-24T00:05:50.954Z,986.18
2024-02-24T00:06:50.392Z,986.19
2024-02-24T00:07:50.398Z,986.24
2024-02-24T00:08:50.442Z,986.26
2024-02-24T00:09:50.463Z,986.29
2024-02-24T00:10:50.577Z,986.28
2024-02-24T00:11:50.554Z,986.24
2024-02-24T00:12:50.566Z,986.24
2024-02-24T00:13:50.592Z,986.24
2024-02-24T00:14:50.656Z,986.27
2024-02-24T00:15:50.682Z,986.25
2024-02-24T00:16:50.694Z,986.29
2024-02-24T00:17:50.862Z,986.29
2024-02-24T00:18:50.799Z,986.27
2024-02-24T00:19:50.801Z,986.32
2024-02-24T00:20:50.883Z,986.27
2024-02-24T00:21:50.859Z,986.28
2024-02-24T00:22:50.918Z,986.37
2024-02-24T00:23:51.044Z,986.40
2024-02-24T00:24:51.073Z,986.45
2024-02-24T00:25:51.133Z,986.44
2024-02-24T00:26:51.109Z,986.45
2024-02-24T00:27:51.108Z,986.46
2024-02-24T00:28:51.157Z,986.44
2024-02-24T00:29:51.117Z,986.49
2024-02-24T00:30:51.175Z,986.46
2024-02-24T00:31:51.231Z,986.49
2024-02-24T00:32:51.401Z,986.53
2024-02-24T00:33:51.399Z,986.52
2024-02-24T00:34:51.291Z,986.56
2024-02-24T00:35:51.316Z,986.51
2024-02-24T00:36:51.360Z,986.57
2024-02-24T00:37:51.393Z,986.58
2024-02-24T00:38:51.416Z,986.64
2024-02-24T00:39:51.482Z,986.64
2024-02-24T00:40:51.499Z,986.61
2024-02-24T00:41:51.537Z,986.65
2024-02-24T00:42:51.583Z,986.66
2024-02-24T00:43:51.577Z,986.63
2024-02-24T00:44:51.632Z,986.68
2024-02-24T00:45:51.729Z,986.73
2024-02-24T00:46:51.680Z,986.75
2024-02-24T00:47:51.876Z,986.76
2024-02-24T00:48:51.827Z,986.78
2024-02-24T00:49:51.802Z,986.78
2024-02-24T00:50:51.833Z,986.80
2024-02-24T00:51:51.849Z,986.72
2024-02-24T00:52:51.885Z,986.75
2024-02-24T00:53:51.964Z,986.80
2024-02-24T00:54:51.945Z,986.83
2024-02-24T00:55:51.977Z,986.82
2024-02-24T00:56:52.051Z,986.80
2024-02-24T00:57:52.042Z,986.77
2024-02-24T00:58:52.133Z,986.77
2024-02-24T00:59:52.118Z,986.76
2024-02-24T01:00:52.236Z,986.81
2024-02-24T01:01:52.188Z,986.81
2024-02-24T01:02:52.237Z,986.77
2024-02-24T01:03:52.303Z,986.74
2024-02-24T01:04:52.309Z,986.73
2024-02-24T01:05:52.350Z,986.76
2024-02-24T01:06:52.405Z,986.77
2024-02-24T01:07:52.379Z,986.78
2024-02-24T01:08:52.446Z,986.87
2024-02-24T01:09:52.465Z,986.77
2024-02-24T01:10:52.528Z,986.89
2024-02-24T01:11:52.583Z,986.82
2024-02-24T01:12:52.576Z,986.85
2024-02-24T01:13:52.590Z,986.84
2024-02-24T01:14:54.608Z,986.87
2024-02-24T01:15:52.660Z,986.87
2024-02-24T01:16:52.677Z,986.80
2024-02-24T01:17:52.805Z,986.84
2024-02-24T01:18:52.899Z,986.85
2024-02-24T01:19:52.767Z,986.84
2024-02-24T01:20:52.918Z,986.83
2024-02-24T01:21:55.217Z,986.85
2024-02-24T01:22:52.867Z,986.79
2024-02-24T01:23:53.012Z,986.81
2024-02-24T01:24:52.925Z,986.84
2024-02-24T01:25:52.988Z,986.93
2024-02-24T01:26:53.015Z,986.96
2024-02-24T01:27:53.022Z,986.96
2024-02-24T01:28:53.064Z,987.02
2024-02-24T01:29:53.226Z,987.06
2024-02-24T01:30:53.148Z,987.13
2024-02-24T01:31:53.163Z,987.20
2024-02-24T01:32:53.399Z,987.24
2024-02-24T01:33:53.359Z,987.29
2024-02-24T01:34:53.312Z,987.33
2024-02-24T01:35:53.307Z,987.35
2024-02-24T01:36:53.368Z,987.31
2024-02-24T01:37:53.375Z,987.30
2024-02-24T01:38:53.358Z,987.33
2024-02-24T01:39:53.455Z,987.29
2024-02-24T01:40:53.458Z,987.27
2024-02-24T01:41:53.561Z,987.26
2024-02-24T01:42:53.558Z,987.27
2024-02-24T01:43:53.555Z,987.24
2024-02-24T01:44:53.622Z,987.29
2024-02-24T01:45:53.717Z,987.28
2024-02-24T01:46:53.672Z,987.32
2024-02-24T01:47:53.897Z,987.30
2024-02-24T01:48:53.838Z,987.38
2024-02-24T01:49:53.743Z,987.39
2024-02-24T01:50:53.838Z,987.39
2024-02-24T01:51:53.797Z,987.38
2024-02-24T01:52:53.870Z,987.35
2024-02-24T01:53:53.912Z,987.32
2024-02-24T01:54:53.869Z,987.39
2024-02-24T01:55:53.950Z,987.50
2024-02-24T01:56:54.049Z,987.45
2024-02-24T01:57:54.277Z,987.41
2024-02-24T01:58:54.053Z,987.47
2024-02-24T01:59:54.039Z,987.41
2024-02-24T02:00:54.137Z,987.42
2024-02-24T02:01:54.153Z,987.45
2024-02-24T02:02:54.270Z,987.44
2024-02-24T02:03:54.203Z,987.47
2024-02-24T02:04:54.380Z,987.51
2024-02-24T02:05:54.390Z,987.50
2024-02-24T02:06:54.364Z,987.48
2024-02-24T02:07:54.351Z,987.51
2024-02-24T02:08:54.417Z,987.50
2024-02-24T02:09:54.428Z,987.54
2024-02-24T02:10:54.465Z,987.52
2024-02-24T02:12:02.832Z,987.55
2024-02-24T02:12:54.560Z,987.57
2024-02-24T02:13:54.544Z,987.56
2024-02-24T02:14:54.572Z,987.61
2024-02-24T02:15:54.603Z,987.56
2024-02-24T02:16:54.636Z,987.57
2024-02-24T02:17:54.781Z,987.63
2024-02-24T02:18:54.855Z,987.64
2024-02-24T02:19:54.742Z,987.66
2024-02-24T02:20:54.838Z,987.66
2024-02-24T02:21:54.797Z,987.65
2024-02-24T02:22:54.828Z,987.67
2024-02-24T02:23:54.902Z,987.66
2024-02-24T02:24:54.908Z,987.66
2024-02-24T02:25:54.935Z,987.74
2024-02-24T02:26:55.006Z,987.77
2024-02-24T02:27:54.995Z,987.77
2024-02-24T02:28:55.032Z,987.80
2024-02-24T02:29:55.059Z,987.77
2024-02-24T02:30:55.113Z,987.84
2024-02-24T02:31:55.134Z,987.83
2024-02-24T02:32:55.248Z,987.87
2024-02-24T02:33:55.252Z,987.83
2024-02-24T02:34:55.253Z,987.82
2024-02-24T02:35:55.266Z,987.86
2024-02-24T02:36:55.299Z,987.85
2024-02-24T02:37:55.331Z,987.80
2024-02-24T02:38:55.352Z,987.90
2024-02-24T02:39:55.406Z,987.95
2024-02-24T02:40:55.421Z,987.98
2024-02-24T02:41:55.478Z,988.04
2024-02-24T02:42:55.511Z,988.05
2024-02-24T02:43:55.527Z,988.03
2024-02-24T02:44:55.563Z,988.10
2024-02-24T02:45:55.676Z,988.09
2024-02-24T02:46:55.620Z,988.06
2024-02-24T02:47:55.905Z,988.03
2024-02-24T02:48:55.843Z,988.05
2024-02-24T02:49:55.970Z,988.04
2024-02-24T02:50:55.792Z,988.11
2024-02-24T02:51:55.801Z,988.12
2024-02-24T02:52:55.874Z,988.10
2024-02-24T02:53:55.872Z,988.15
2024-02-24T02:54:55.885Z,988.22
2024-02-24T02:55:55.923Z,988.21
2024-02-24T02:56:55.961Z,988.21
2024-02-24T02:57:55.980Z,988.19
2024-02-24T02:58:56.019Z,988.17
2024-02-24T02:59:56.091Z,988.24
2024-02-24T03:00:56.138Z,988.29
2024-02-24T03:01:56.120Z,988.33
2024-02-24T03:02:56.200Z,988.35
2024-02-24T03:03:56.235Z,988.32
2024-02-24T03:04:56.230Z,988.33
2024-02-24T03:05:56.345Z,988.34
2024-02-24T03:06:56.299Z,988.39
2024-02-24T03:07:56.313Z,988.38
2024-02-24T03:08:57.217Z,988.33
2024-02-24T03:09:56.382Z,988.37
2024-02-24T03:10:56.480Z,988.45
2024-02-24T03:11:56.652Z,988.46
2024-02-24T03:12:56.485Z,988.46
2024-02-24T03:13:56.502Z,988.44
2024-02-24T03:14:56.537Z,988.46
2024-02-24T03:15:56.573Z,988.48
2024-02-24T03:16:56.571Z,988.46
2024-02-24T03:17:56.770Z,988.47
2024-02-24T03:18:56.738Z,988.48
2024-02-24T03:19:56.721Z,988.48
2024-02-24T03:20:56.933Z,988.51
2024-02-24T03:21:56.784Z,988.49
2024-02-24T03:22:56.840Z,988.44
2024-02-24T03:23:56.849Z,988.47
2024-02-24T03:24:56.865Z,988.48
2024-02-24T03:25:56.864Z,988.51
2024-02-24T03:26:56.954Z,988.52
2024-02-24T03:27:56.967Z,988.52
2024-02-24T03:28:56.996Z,988.55
2024-02-24T03:29:57.033Z,988.55
2024-02-24T03:30:57.070Z,988.57
2024-02-24T03:31:57.107Z,988.58
2024-02-24T03:32:57.322Z,988.58
2024-02-24T03:33:57.220Z,988.55
2024-02-24T03:34:57.216Z,988.59
2024-02-24T03:35:57.314Z,988.57
2024-02-24T03:36:57.271Z,988.60
2024-02-24T03:37:57.290Z,988.62
2024-02-24T03:38:57.382Z,988.61
2024-02-24T03:39:57.369Z,988.59
2024-02-24T03:40:57.393Z,988.59
2024-02-24T03:41:57.687Z,988.58
2024-02-24T03:42:57.465Z,988.61
2024-02-24T03:43:57.534Z,988.62
2024-02-24T03:44:57.589Z,988.70
2024-02-24T03:45:57.821Z,988.71
2024-02-24T03:46:57.603Z,988.70
2024-02-24T03:47:57.999Z,988.72
2024-02-24T03:48:57.759Z,988.71
2024-02-24T03:49:57.689Z,988.71
2024-02-24T03:50:57.720Z,988.76
2024-02-24T03:51:57.754Z,988.77
2024-02-24T03:52:57.794Z,988.81
2024-02-24T03:53:57.817Z,988.85
2024-02-24T03:54:57.960Z,988.78
2024-02-24T03:55:57.890Z,988.84
2024-02-24T03:56:57.937Z,988.92
2024-02-24T03:57:57.944Z,988.98
2024-02-24T03:58:57.986Z,988.98
2024-02-24T03:59:58.075Z,988.97
2024-02-24T04:00:58.134Z,988.96
2024-02-24T04:01:58.083Z,988.98
2024-02-24T04:02:58.117Z,989.01
2024-02-24T04:03:58.158Z,989.02
2024-02-24T04:04:58.278Z,989.06
2024-02-24T04:05:58.418Z,989.04
2024-02-24T04:06:58.305Z,989.05
2024-02-24T04:07:58.302Z,989.05
2024-02-24T04:08:58.352Z,989.02
2024-02-24T04:09:58.351Z,989.03
2024-02-24T04:10:58.480Z,989.00
2024-02-24T04:11:58.490Z,989.04
2024-02-24T04:12:58.438Z,989.10
2024-02-24T04:13:58.494Z,989.14
2024-02-24T04:14:58.514Z,989.17
2024-02-24T04:15:58.555Z,989.17
2024-02-24T04:16:58.610Z,989.15
2024-02-24T04:17:58.706Z,989.11
2024-02-24T04:18:58.707Z,989.12
2024-02-24T04:19:58.670Z,989.13
2024-02-24T04:20:58.806Z,989.13
2024-02-24T04:21:58.739Z,989.20
2024-02-24T04:22:58.769Z,989.18
2024-02-24T04:23:58.875Z,989.25
2024-02-24T04:24:58.871Z,989.30
2024-02-24T04:25:58.871Z,989.28
2024-02-24T04:26:58.988Z,989.33
2024-02-24T04:27:58.948Z,989.40
2024-02-24T04:28:59.013Z,989.38
2024-02-24T04:29:59.012Z,989.39
2024-02-24T04:30:59.055Z,989.32
2024-02-24T04:31:59.063Z,989.32
2024-02-24T04:32:59.253Z,989.35
2024-02-24T04:33:59.208Z,989.40
2024-02-24T04:34:59.403Z,989.39
2024-02-24T04:35:59.238Z,989.39
2024-02-24T04:36:59.239Z,989.43
2024-02-24T04:37:59.278Z,989.46
2024-02-24T04:38:59.307Z,989.44
2024-02-24T04:39:59.342Z,989.48
2024-02-24T04:40:59.374Z,989.47
2024-02-24T04:41:59.410Z,989.47
2024-02-24T04:42:59.451Z,989.47
2024-02-24T04:43:59.460Z,989.45
2024-02-24T04:44:59.497Z,989.44
2024-02-24T04:45:59.536Z,989.48
2024-02-24T04:46:59.579Z,989.51
2024-02-24T04:47:59.957Z,989.54
2024-02-24T04:48:59.739Z,989.56
2024-02-24T04:49:59.671Z,989.56
2024-02-24T04:51:02.878Z,989.62
2024-02-24T04:51:59.726Z,989.66
2024-02-24T04:52:59.757Z,989.67
2024-02-24T04:53:59.786Z,989.70
2024-02-24T04:54:59.820Z,989.75
2024-02-24T04:56:00.145Z,989.73
2024-02-24T04:56:59.899Z,989.74
2024-02-24T04:57:59.937Z,989.74
2024-02-24T04:58:59.995Z,989.73
2024-02-24T04:59:59.994Z,989.72
2024-02-24T05:01:00.102Z,989.76
2024-02-24T05:02:00.048Z,989.77
2024-02-24T05:03:00.173Z,989.79
2024-02-24T05:04:00.203Z,989.87
2024-02-24T05:05:00.216Z,989.90
2024-02-24T05:06:00.285Z,989.93
2024-02-24T05:07:00.248Z,989.84
2024-02-24T05:08:00.261Z,989.87
2024-02-24T05:09:00.382Z,989.92
2024-02-24T05:10:00.366Z,989.92
2024-02-24T05:11:00.367Z,989.92
2024-02-24T05:12:00.437Z,989.98
2024-02-24T05:13:02.953Z,989.94
2024-02-24T05:14:00.556Z,989.96
2024-02-24T05:15:00.584Z,989.94
2024-02-24T05:16:00.516Z,989.98
2024-02-24T05:17:00.546Z,989.94
2024-02-24T05:18:00.833Z,989.98
2024-02-24T05:19:00.666Z,989.96
2024-02-24T05:20:00.649Z,989.94
2024-02-24T05:21:00.717Z,989.98
2024-02-24T05:22:00.711Z,989.99
2024-02-24T05:23:00.752Z,990.00
2024-02-24T05:24:00.782Z,989.94
2024-02-24T05:25:00.834Z,990.02
2024-02-24T05:26:00.836Z,990.07
2024-02-24T05:27:00.886Z,990.16
2024-02-24T05:28:00.909Z,990.07
2024-02-24T05:29:00.943Z,989.99
2024-02-24T05:30:00.997Z,990.05
2024-02-24T05:31:01.044Z,990.03
2024-02-24T05:32:01.332Z,989.97
2024-02-24T05:33:01.169Z,990.04
2024-02-24T05:34:01.285Z,990.11
2024-02-24T05:35:01.177Z,990.13
2024-02-24T05:36:01.204Z,990.19
2024-02-24T05:37:01.201Z,990.11
2024-02-24T05:38:01.231Z,990.07
2024-02-24T05:39:01.278Z,990.14
2024-02-24T05:40:01.332Z,990.13
2024-02-24T05:41:01.354Z,990.09
2024-02-24T05:42:01.378Z,990.17
2024-02-24T05:43:01.422Z,990.21
2024-02-24T05:44:01.465Z,990.28
2024-02-24T05:45:01.466Z,990.28
2024-02-24T05:46:03.046Z,990.16
2024-02-24T05:47:01.558Z,990.22
2024-02-24T05:48:01.617Z,990.30
2024-02-24T05:49:01.684Z,990.28
2024-02-24T05:50:01.631Z,990.32
2024-02-24T05:51:01.725Z,990.26
2024-02-24T05:52:01.690Z,990.29
2024-02-24T05:53:01.778Z,990.25
2024-02-24T05:54:01.833Z,990.30
2024-02-24T05:55:01.804Z,990.29
2024-02-24T05:56:01.841Z,990.34
2024-02-24T05:57:01.884Z,990.34
2024-02-24T05:58:01.885Z,990.37
2024-02-24T05:59:01.959Z,990.41
2024-02-24T06:00:01.986Z,990.38
2024-02-24T06:01:02.073Z,990.26
2024-02-24T06:02:02.021Z,990.32
2024-02-24T06:03:02.293Z,990.37
2024-02-24T06:04:02.271Z,990.38
2024-02-24T06:05:02.140Z,990.32
2024-02-24T06:06:02.378Z,990.36
2024-02-24T06:07:02.245Z,990.31
2024-02-24T06:08:02.318Z,990.31
2024-02-24T06:09:02.306Z,990.37
2024-02-24T06:10:02.305Z,990.35
2024-02-24T06:11:02.352Z,990.36
2024-02-24T06:12:02.374Z,990.40
2024-02-24T06:13:02.389Z,990.40
2024-02-24T06:14:02.415Z,990.36
2024-02-24T06:15:02.473Z,990.34
2024-02-24T06:16:02.471Z,990.36
2024-02-24T06:17:02.546Z,990.39
2024-02-24T06:18:02.757Z,990.43
2024-02-24T06:19:02.673Z,990.39
2024-02-24T06:20:02.625Z,990.48
2024-02-24T06:21:02.739Z,990.48
2024-02-24T06:22:02.740Z,990.52
2024-02-24T06:23:02.738Z,990.49
2024-02-24T06:24:02.896Z,990.54
2024-02-24T06:25:02.777Z,990.47
2024-02-24T06:26:02.866Z,990.54
2024-02-24T06:27:02.815Z,990.54
2024-02-24T06:28:02.894Z,990.54
2024-02-24T06:29:02.928Z,990.53
2024-02-24T06:30:02.943Z,990.53
2024-02-24T06:31:03.028Z,990.52
2024-02-24T06:32:03.009Z,990.57
2024-02-24T06:33:03.213Z,990.54
2024-02-24T06:34:07.125Z,990.51
2024-02-24T06:35:03.185Z,990.55
2024-02-24T06:36:03.235Z,990.56
2024-02-24T06:37:03.179Z,990.54
2024-02-24T06:38:03.205Z,990.54
2024-02-24T06:39:03.221Z,990.54
2024-02-24T06:40:03.267Z,990.59
2024-02-24T06:41:03.323Z,990.60
2024-02-24T06:42:03.343Z,990.59
2024-02-24T06:43:03.372Z,990.56
2024-02-24T06:44:03.396Z,990.60
2024-02-24T06:45:03.458Z,990.63
2024-02-24T06:46:03.471Z,990.61
2024-02-24T06:47:14.123Z,990.65
2024-02-24T06:48:03.856Z,990.66
2024-02-24T06:49:04.180Z,990.66
2024-02-24T06:50:03.629Z,990.71
2024-02-24T06:51:03.667Z,990.79
2024-02-24T06:52:03.670Z,990.77
2024-02-24T06:53:03.692Z,990.81
2024-02-24T06:54:03.730Z,990.83
2024-02-24T06:55:03.826Z,990.81
2024-02-24T06:56:03.827Z,990.83
2024-02-24T06:57:03.847Z,990.87
2024-02-24T06:58:03.868Z,990.87
2024-02-24T06:59:03.919Z,990.88
2024-02-24T07:00:03.929Z,990.86
2024-02-24T07:01:04.042Z,990.91
2024-02-24T07:02:03.995Z,990.88
2024-02-24T07:03:04.203Z,990.85
2024-02-24T07:04:04.059Z,990.88
2024-02-24T07:05:04.088Z,990.88
2024-02-24T07:06:04.274Z,990.87
2024-02-24T07:07:04.265Z,990.87
2024-02-24T07:08:04.305Z,990.86
2024-02-24T07:09:04.228Z,990.85
2024-02-24T07:10:04.266Z,990.86
2024-02-24T07:11:04.320Z,990.84
2024-02-24T07:12:04.460Z,990.80
2024-02-24T07:13:04.379Z,990.85
2024-02-24T07:14:04.390Z,990.87
2024-02-24T07:15:04.414Z,990.89
2024-02-24T07:16:04.519Z,990.86
2024-02-24T07:17:04.504Z,990.84
2024-02-24T07:18:04.601Z,990.88
2024-02-24T07:19:04.556Z,990.85
2024-02-24T07:20:04.586Z,990.86
2024-02-24T07:21:04.856Z,990.90
2024-02-24T07:22:04.707Z,990.80
2024-02-24T07:23:04.716Z,990.84
2024-02-24T07:24:04.712Z,990.86
2024-02-24T07:25:04.750Z,990.91
2024-02-24T07:26:04.780Z,990.90
2024-02-24T07:27:04.858Z,990.95
2024-02-24T07:28:04.838Z,990.91
2024-02-24T07:29:04.887Z,990.91
2024-02-24T07:30:04.907Z,990.96
2024-02-24T07:31:04.974Z,990.91
2024-02-24T07:32:04.995Z,990.94
2024-02-24T07:33:05.298Z,990.95
2024-02-24T07:34:05.154Z,990.90
2024-02-24T07:35:05.079Z,990.93
2024-02-24T07:36:05.370Z,990.97
2024-02-24T07:37:05.149Z,990.97
2024-02-24T07:38:05.173Z,990.94
2024-02-24T07:39:05.275Z,990.98
2024-02-24T07:40:05.244Z,990.88
2024-02-24T07:41:05.294Z,991.00
2024-02-24T07:42:05.308Z,990.97
2024-02-24T07:43:05.367Z,991.01
2024-02-24T07:44:05.387Z,991.04
2024-02-24T07:45:05.469Z,991.01
2024-02-24T07:46:05.439Z,990.99
2024-02-24T07:47:05.462Z,990.97
2024-02-24T07:48:05.531Z,990.97
2024-02-24T07:49:05.571Z,990.99
2024-02-24T07:50:05.568Z,991.01
2024-02-24T07:51:05.637Z,990.97
2024-02-24T07:52:05.730Z,990.98
2024-02-24T07:53:05.673Z,991.04
2024-02-24T07:54:05.703Z,991.05
2024-02-24T07:55:05.788Z,991.07
2024-02-24T07:56:05.776Z,991.02
2024-02-24T07:57:05.851Z,991.07
2024-02-24T07:58:05.825Z,991.03
2024-02-24T07:59:05.866Z,991.03
2024-02-24T08:00:05.986Z,991.07
2024-02-24T08:01:05.936Z,991.05
2024-02-24T08:02:05.974Z,991.06
2024-02-24T08:03:05.958Z,991.06
2024-02-24T08:04:06.155Z,991.05
2024-02-24T08:05:06.117Z,991.09
2024-02-24T08:06:06.100Z,991.09
2024-02-24T08:07:06.284Z,991.12
2024-02-24T08:08:06.211Z,991.14
2024-02-24T08:09:06.192Z,991.15
2024-02-24T08:10:06.226Z,991.17
2024-02-24T08:11:06.294Z,991.14
2024-02-24T08:12:06.345Z,991.16
2024-02-24T08:13:06.359Z,991.16
2024-02-24T08:14:06.354Z,991.19
2024-02-24T08:15:06.455Z,991.19
2024-02-24T08:16:06.472Z,991.17
2024-02-24T08:17:06.453Z,991.16
2024-02-24T08:18:06.568Z,991.16
2024-02-24T08:19:06.621Z,991.19
2024-02-24T08:20:06.568Z,991.18
2024-02-24T08:21:06.632Z,991.16
2024-02-24T08:22:06.628Z,991.16
2024-02-24T08:23:06.650Z,991.18
2024-02-24T08:24:06.718Z,991.20
2024-02-24T08:25:06.717Z,991.16
2024-02-24T08:26:06.768Z,991.19
2024-02-24T08:27:06.851Z,991.22
2024-02-24T08:28:06.824Z,991.20
2024-02-24T08:29:06.865Z,991.22
2024-02-24T08:30:06.904Z,991.20
2024-02-24T08:31:06.916Z,991.21
2024-02-24T08:32:06.962Z,991.21
2024-02-24T08:33:07.111Z,991.23
2024-02-24T08:34:07.144Z,991.26
2024-02-24T08:35:07.094Z,991.20
2024-02-24T08:36:07.239Z,991.22
2024-02-24T08:37:07.123Z,991.25
2024-02-24T08:38:07.163Z,991.26
2024-02-24T08:39:07.307Z,991.26
2024-02-24T08:40:07.231Z,991.26
2024-02-24T08:41:07.273Z,991.23
2024-02-24T08:42:07.278Z,991.30
2024-02-24T08:43:07.348Z,991.27
2024-02-24T08:44:07.355Z,991.31
2024-02-24T08:45:07.378Z,991.35
2024-02-24T08:46:09.154Z,991.32
2024-02-24T08:47:07.441Z,991.32
2024-02-24T08:48:07.678Z,991.26
2024-02-24T08:49:07.512Z,991.27
2024-02-24T08:50:07.563Z,991.33
2024-02-24T08:51:07.678Z,991.34
2024-02-24T08:52:07.625Z,991.28
2024-02-24T08:53:07.654Z,991.34
2024-02-24T08:54:07.677Z,991.32
2024-02-24T08:55:07.698Z,991.38
2024-02-24T08:56:07.735Z,991.39
2024-02-24T08:57:07.788Z,991.37
2024-02-24T08:58:07.805Z,991.43
2024-02-24T08:59:07.866Z,991.44
2024-02-24T09:00:07.994Z,991.47
2024-02-24T09:01:07.963Z,991.41
2024-02-24T09:02:07.965Z,991.45
2024-02-24T09:03:08.026Z,991.47
2024-02-24T09:04:08.024Z,991.47
2024-02-24T09:05:08.054Z,991.49
2024-02-24T09:06:08.170Z,991.50
2024-02-24T09:07:08.188Z,991.48
2024-02-24T09:08:08.166Z,991.49
2024-02-24T09:09:08.162Z,991.54
2024-02-24T09:10:09.301Z,991.49
2024-02-24T09:11:08.331Z,991.46
2024-02-24T09:12:08.331Z,991.46
2024-02-24T09:13:08.327Z,991.48
2024-02-24T09:14:08.386Z,991.45
2024-02-24T09:15:08.405Z,991.48
2024-02-24T09:16:08.433Z,991.50
2024-02-24T09:17:08.449Z,991.47
2024-02-24T09:18:08.697Z,991.46
2024-02-24T09:19:08.573Z,991.45
2024-02-24T09:20:08.528Z,991.47
2024-02-24T09:21:09.836Z,991.49
2024-02-24T09:22:08.597Z,991.51
2024-02-24T09:23:08.630Z,991.48
2024-02-24T09:24:08.682Z,991.42
2024-02-24T09:25:08.719Z,991.44
2024-02-24T09:26:08.733Z,991.45
2024-02-24T09:27:08.797Z,991.42
2024-02-24T09:28:11.073Z,991.45
2024-02-24T09:29:08.841Z,991.51
2024-02-24T09:30:08.904Z,991.48
2024-02-24T09:31:08.923Z,991.46
2024-02-24T09:32:08.939Z,991.47
2024-02-24T09:33:09.356Z,991.45
2024-02-24T09:34:11.015Z,991.42
2024-02-24T09:35:09.029Z,991.38
2024-02-24T09:36:09.127Z,991.41
2024-02-24T09:37:09.076Z,991.40
2024-02-24T09:38:09.141Z,991.40
2024-02-24T09:39:09.141Z,991.39
2024-02-24T09:40:09.179Z,991.38
2024-02-24T09:41:09.252Z,991.36
2024-02-24T09:42:09.253Z,991.37
2024-02-24T09:43:09.304Z,991.40
2024-02-24T09:44:09.379Z,991.43
2024-02-24T09:45:09.489Z,991.38
2024-02-24T09:46:09.414Z,991.39
2024-02-24T09:47:09.457Z,991.41
2024-02-24T09:48:09.642Z,991.38
2024-02-24T09:49:09.906Z,991.34
2024-02-24T09:50:09.514Z,991.36
2024-02-24T09:51:09.572Z,991.31
2024-02-24T09:52:09.616Z,991.34
2024-02-24T09:53:09.610Z,991.38
2024-02-24T09:54:09.646Z,991.34
2024-02-24T09:55:09.741Z,991.29
2024-02-24T09:56:09.754Z,991.33
2024-02-24T09:57:09.751Z,991.45
2024-02-24T09:58:09.775Z,991.37
2024-02-24T09:59:09.826Z,991.36
2024-02-24T10:00:09.840Z,991.34
2024-02-24T10:01:09.909Z,991.36
2024-02-24T10:02:09.912Z,991.37
2024-02-24T10:03:10.304Z,991.33
2024-02-24T10:04:09.969Z,991.36
2024-02-24T10:05:10.064Z,991.35
2024-02-24T10:06:10.385Z,991.34
2024-02-24T10:07:10.084Z,991.32
2024-02-24T10:08:10.176Z,991.35
2024-02-24T10:09:10.181Z,991.35
2024-02-24T10:10:10.168Z,991.39
2024-02-24T10:11:10.330Z,991.37
2024-02-24T10:12:10.259Z,991.39
2024-02-24T10:13:10.270Z,991.40
2024-02-24T10:14:10.413Z,991.39
2024-02-24T10:15:10.340Z,991.41
2024-02-24T10:16:10.372Z,991.39
2024-02-24T10:17:10.493Z,991.49
2024-02-24T10:18:10.587Z,991.41
2024-02-24T10:19:10.660Z,991.39
2024-02-24T10:20:10.544Z,991.44
2024-02-24T10:21:10.526Z,991.38
2024-02-24T10:22:10.564Z,991.37
2024-02-24T10:23:10.669Z,991.34
2024-02-24T10:24:10.667Z,991.32
2024-02-24T10:25:10.670Z,991.33
2024-02-24T10:26:10.820Z,991.36
2024-02-24T10:27:10.747Z,991.39
2024-02-24T10:28:10.772Z,991.36
2024-02-24T10:29:10.859Z,991.32
2024-02-24T10:30:10.852Z,991.35
2024-02-24T10:31:10.907Z,991.38
2024-02-24T10:32:10.892Z,991.39
2024-02-24T10:33:11.043Z,991.37
2024-02-24T10:34:11.076Z,991.40
2024-02-24T10:35:11.064Z,991.33
2024-02-24T10:36:11.277Z,991.37
2024-02-24T10:37:11.081Z,991.34
2024-02-24T10:38:23.234Z,991.42
2024-02-24T10:39:11.142Z,991.32
2024-02-24T10:40:11.151Z,991.33
2024-02-24T10:41:11.260Z,991.37
2024-02-24T10:42:11.350Z,991.43
2024-02-24T10:43:11.465Z,991.39
2024-02-24T10:44:18.877Z,991.47
2024-02-24T10:45:11.414Z,991.39
2024-02-24T10:46:11.416Z,991.35
2024-02-24T10:47:11.439Z,991.36
2024-02-24T10:48:11.650Z,991.38
2024-02-24T10:49:11.553Z,991.41
2024-02-24T10:50:11.487Z,991.33
2024-02-24T10:51:11.550Z,991.36
2024-02-24T10:52:11.556Z,991.34
2024-02-24T10:53:11.722Z,991.36
2024-02-24T10:54:11.879Z,991.29
2024-02-24T10:55:11.653Z,991.31
2024-02-24T10:56:11.790Z,991.31
2024-02-24T10:57:11.723Z,991.25
2024-02-24T10:58:11.774Z,991.28
2024-02-24T10:59:11.971Z,991.26
2024-02-24T11:00:11.842Z,991.30
2024-02-24T11:01:12.708Z,991.28
2024-02-24T11:02:12.010Z,991.32
2024-02-24T11:03:11.901Z,991.28
2024-02-24T11:04:12.080Z,991.30
2024-02-24T11:05:11.993Z,991.31
2024-02-24T11:06:12.077Z,991.28
2024-02-24T11:07:12.373Z,991.29
2024-02-24T11:08:12.200Z,991.35
2024-02-24T11:09:12.125Z,991.27
2024-02-24T11:10:12.140Z,991.29
2024-02-24T11:11:12.621Z,991.32
2024-02-24T11:12:12.579Z,991.28
2024-02-24T11:13:12.236Z,991.27
2024-02-24T11:14:12.402Z,991.26
2024-02-24T11:15:12.303Z,991.22
2024-02-24T11:16:12.333Z,991.24
2024-02-24T11:17:12.771Z,991.24
2024-02-24T11:18:12.569Z,991.20
2024-02-24T11:19:13.513Z,991.20
2024-02-24T11:20:12.524Z,991.22
2024-02-24T11:21:12.517Z,991.18
2024-02-24T11:22:12.565Z,991.19
2024-02-24T11:23:12.755Z,991.18
2024-02-24T11:24:12.579Z,991.18
2024-02-24T11:25:12.651Z,991.15
2024-02-24T11:26:12.705Z,991.13
2024-02-24T11:27:12.776Z,991.17
2024-02-24T11:28:12.732Z,991.17
2024-02-24T11:29:12.794Z,991.17
2024-02-24T11:30:12.812Z,991.18
2024-02-24T11:31:12.875Z,991.23
2024-02-24T11:32:13.139Z,991.20
2024-02-24T11:33:13.191Z,991.25
2024-02-24T11:34:13.104Z,991.25
2024-02-24T11:35:13.050Z,991.28
2024-02-24T11:36:13.015Z,991.24
2024-02-24T11:37:13.030Z,991.22
2024-02-24T11:38:13.068Z,991.20
2024-02-24T11:39:13.361Z,991.20
2024-02-24T11:40:13.133Z,991.22
2024-02-24T11:41:13.206Z,991.17
2024-02-24T11:42:13.202Z,991.16
2024-02-24T11:43:13.223Z,991.16
2024-02-24T11:44:13.301Z,991.13
2024-02-24T11:45:13.305Z,991.10
2024-02-24T11:46:13.323Z,991.08
2024-02-24T11:47:13.416Z,991.05
2024-02-24T11:48:13.592Z,991.08
2024-02-24T11:49:13.483Z,991.08
2024-02-24T11:50:13.511Z,991.06
2024-02-24T11:51:13.493Z,991.04
2024-02-24T11:52:13.531Z,991.05
2024-02-24T11:53:13.687Z,991.08
2024-02-24T11:54:13.817Z,991.09
2024-02-24T11:55:13.652Z,991.11
2024-02-24T11:56:13.694Z,991.09
2024-02-24T11:57:14.068Z,991.12
2024-02-24T11:58:13.722Z,991.11
2024-02-24T11:59:13.768Z,991.12
2024-02-24T12:00:13.789Z,991.11
2024-02-24T12:01:13.903Z,991.10
2024-02-24T12:02:13.909Z,991.05
2024-02-24T12:03:13.965Z,991.08
2024-02-24T12:04:13.967Z,991.06
2024-02-24T12:05:14.039Z,991.06
2024-02-24T12:06:14.114Z,991.03
2024-02-24T12:07:14.048Z,991.05
2024-02-24T12:08:14.060Z,991.04
2024-02-24T12:09:14.096Z,991.07
2024-02-24T12:10:14.114Z,991.06
2024-02-24T12:11:14.247Z,991.05
2024-02-24T12:12:14.201Z,990.99
2024-02-24T12:13:14.503Z,991.00
2024-02-24T12:14:14.291Z,990.99
2024-02-24T12:15:14.303Z,991.01
2024-02-24T12:16:14.572Z,990.97
2024-02-24T12:17:14.423Z,990.95
2024-02-24T12:18:14.654Z,990.99
2024-02-24T12:19:14.471Z,990.95
2024-02-24T12:20:14.512Z,990.96
2024-02-24T12:21:14.585Z,990.94
2024-02-24T12:22:14.508Z,990.99
2024-02-24T12:23:14.574Z,990.95
2024-02-24T12:24:14.579Z,990.96
2024-02-24T12:25:14.608Z,990.97
2024-02-24T12:26:14.769Z,990.98
2024-02-24T12:27:14.740Z,990.96
2024-02-24T12:28:14.710Z,990.95
2024-02-24T12:29:14.839Z,990.96